Urb Pastor Felix Rios Lopez, Puerto Rico
Current Conditions -  °F | °C
As of 11:16 AM on Saturday 25 Oct 2014 (Local Time) from TJNR Reporting Station
Broken Clouds Broken Clouds  
Wind Chill: 89°   Ceiling: 6000
Heat Index: 100°   Visibility: 10mi
Dew Point: 76°   Wind: 12mph
Humidity: 65%   Direction: 110°ESE
Pressure: 29.96"   Gusts: NA
Location:  18.2667°N, 65.6476°W
Report Text: TJNR 251516Z AUTO 11010KT 10SM SCT028 SCT043 BKN060 32/24 A2996 RMK AO2 T03170244 $
Loading
Personal Weather Stations






























Interactive Weather Map New forecast layout! Learn more

10-Day Weather Forecast

Advertisements
Track Severe Weather on mobile